Time;durP1;ratioP1;P1;durP2;ratioP2;P2;SDS_P1;SDS_P2;PMS_P1;PMS_P2;Temp;Humidity;BMP_temperature;BMP_pressure;BME280_temperature;BME280_humidity;BME280_pressure;Samples;Min_cycle;Max_cycle;Signal;HPM_P1;HPM_P2
2022/10/24 00:00:01;;;;;;;14.80;2.38;;;15.80;99.90;;;;;;5034541;28;20022;-78
2022/10/24 00:02:26;;;;;;;7.95;3.10;;;15.80;99.90;;;;;;5034126;28;20060;-78
2022/10/24 00:04:52;;;;;;;7.80;2.55;;;15.80;99.90;;;;;;5034617;28;20056;-78
2022/10/24 00:07:18;;;;;;;10.35;2.20;;;15.80;99.90;;;;;;5034860;28;20029;-78
2022/10/24 00:09:43;;;;;;;6.78;2.17;;;15.80;99.90;;;;;;5034374;28;20036;-78
2022/10/24 00:12:09;;;;;;;9.23;2.15;;;15.80;99.90;;;;;;5034276;28;20034;-78
2022/10/24 00:14:35;;;;;;;6.95;2.20;;;15.80;99.90;;;;;;5034846;28;20166;-78
2022/10/24 00:17:01;;;;;;;7.75;2.10;;;15.80;99.90;;;;;;5033437;28;20022;-78
2022/10/24 00:19:26;;;;;;;9.95;2.10;;;15.80;99.90;;;;;;5034131;28;20017;-79
2022/10/24 00:21:52;;;;;;;13.50;2.17;;;15.70;99.90;;;;;;5034341;28;20036;-78
2022/10/24 00:24:18;;;;;;;8.02;1.90;;;15.70;99.90;;;;;;5019155;28;20025;-88
2022/10/24 00:26:43;;;;;;;5.47;1.73;;;15.60;99.90;;;;;;5031801;28;20053;-88
2022/10/24 00:29:10;;;;;;;6.30;1.80;;;15.60;99.90;;;;;;5032089;28;20478;-87
2022/10/24 00:31:36;;;;;;;5.38;2.08;;;15.50;99.90;;;;;;5023542;28;20044;-87
2022/10/24 00:34:02;;;;;;;9.63;2.33;;;15.50;99.90;;;;;;5031837;28;20033;-87
2022/10/24 00:36:28;;;;;;;7.93;2.13;;;15.50;99.90;;;;;;5031919;28;20111;-88
2022/10/24 00:38:54;;;;;;;7.03;1.83;;;15.50;99.90;;;;;;5032292;28;20066;-88
2022/10/24 00:41:23;;;;;;;9.48;1.67;;;15.40;99.90;;;;;;5032193;28;20692;-88
2022/10/24 00:43:49;;;;;;;2.90;1.48;;;15.30;99.90;;;;;;5032256;28;20437;-88
2022/10/24 00:46:16;;;;;;;8.45;1.70;;;15.30;99.90;;;;;;5032187;28;20029;-88
2022/10/24 00:48:52;;;;;;;7.75;1.90;;;15.20;99.90;;;;;;5032189;28;20060;-88
2022/10/24 00:51:29;;;;;;;8.98;2.13;;;15.00;99.90;;;;;;5021488;28;20026;-88
2022/10/24 00:54:03;;;;;;;12.90;2.15;;;14.90;99.90;;;;;;5031008;28;20361;-88
2022/10/24 00:56:33;;;;;;;10.88;2.05;;;14.80;99.90;;;;;;5030624;28;20421;-88
2022/10/24 00:59:01;;;;;;;8.52;2.10;;;14.70;99.90;;;;;;5030761;28;20316;-88
2022/10/24 01:01:28;;;;;;;10.07;2.30;;;14.60;99.90;;;;;;5031340;28;20458;-88
2022/10/24 01:03:53;;;;;;;7.60;2.80;;;14.50;99.90;;;;;;5030992;28;20068;-88
2022/10/24 01:06:37;;;;;;;13.05;2.42;;;14.50;99.90;;;;;;5031918;28;20486;-88
2022/10/24 01:09:38;;;;;;;14.07;2.58;;;14.40;99.90;;;;;;5031275;28;20017;-88
2022/10/24 01:12:18;;;;;;;8.57;2.40;;;14.30;99.90;;;;;;5030443;28;20064;-88
2022/10/24 01:14:56;;;;;;;14.52;2.60;;;14.20;99.90;;;;;;5030510;28;20104;-86
2022/10/24 01:17:49;;;;;;;7.03;2.42;;;14.10;99.90;;;;;;5030920;28;20029;-85
2022/10/24 01:20:53;;;;;;;10.98;3.03;;;14.10;99.90;;;;;;5031725;28;20053;-86
2022/10/24 01:23:40;;;;;;;9.77;3.00;;;14.00;99.90;;;;;;5031995;28;20479;-86
2022/10/24 01:26:09;;;;;;;10.93;2.78;;;14.00;99.90;;;;;;5018046;28;20025;-86
2022/10/24 01:29:06;;;;;;;9.55;2.65;;;13.90;99.90;;;;;;5031475;28;20155;-85
2022/10/24 01:31:49;;;;;;;11.35;2.70;;;13.90;99.90;;;;;;5027975;28;20086;-85
2022/10/24 01:34:25;;;;;;;11.10;2.70;;;13.90;99.90;;;;;;5028681;28;20017;-85
2022/10/24 01:37:06;;;;;;;9.15;2.67;;;13.80;99.90;;;;;;5031446;28;20025;-86
2022/10/24 01:39:39;;;;;;;9.85;2.40;;;13.80;99.90;;;;;;5030097;28;20049;-86
2022/10/24 01:42:07;;;;;;;9.93;2.40;;;13.80;99.90;;;;;;5031350;28;20052;-85
2022/10/24 01:44:38;;;;;;;6.10;2.05;;;13.80;99.90;;;;;;5031258;28;20474;-85
2022/10/24 01:47:10;;;;;;;12.65;2.90;;;13.80;99.90;;;;;;5031789;28;20112;-86
2022/10/24 01:49:38;;;;;;;9.02;2.30;;;13.80;99.90;;;;;;5031481;28;20028;-86
2022/10/24 01:52:08;;;;;;;12.95;2.75;;;13.80;99.90;;;;;;5031405;28;20036;-86
2022/10/24 01:54:36;;;;;;;9.20;2.17;;;13.80;99.90;;;;;;5031265;28;20041;-86
2022/10/24 01:57:02;;;;;;;7.28;2.13;;;13.80;99.90;;;;;;5031707;28;20053;-86
2022/10/24 01:59:27;;;;;;;7.82;2.22;;;13.80;99.90;;;;;;5031388;28;20103;-86
2022/10/24 02:02:03;;;;;;;8.52;2.60;;;13.80;99.90;;;;;;5031500;28;20304;-86
2022/10/24 02:04:31;;;;;;;9.93;2.30;;;13.80;99.90;;;;;;5031447;28;20037;-86
2022/10/24 02:07:00;;;;;;;7.90;2.28;;;13.70;99.90;;;;;;5031057;28;20501;-85
2022/10/24 02:09:29;;;;;;;12.00;2.33;;;13.80;99.90;;;;;;5030950;28;20391;-85
2022/10/24 02:11:57;;;;;;;12.40;2.58;;;13.70;99.90;;;;;;5030916;28;20417;-85
2022/10/24 02:14:32;;;;;;;7.05;2.15;;;13.70;99.90;;;;;;5030008;28;20155;-85
2022/10/24 02:16:59;;;;;;;11.00;2.45;;;13.70;99.90;;;;;;5032912;28;20029;-76
2022/10/24 02:19:25;;;;;;;8.10;2.03;;;13.70;99.90;;;;;;5031517;28;20478;-78
2022/10/24 02:22:10;;;;;;;12.55;2.35;;;13.70;99.90;;;;;;5031278;28;20021;-78
2022/10/24 02:24:51;;;;;;;9.18;2.58;;;13.70;99.90;;;;;;5027839;28;20113;-78
2022/10/24 02:27:39;;;;;;;13.52;3.15;;;13.70;99.90;;;;;;5016537;28;20030;-79
2022/10/24 02:30:09;;;;;;;9.70;2.45;;;13.70;99.90;;;;;;5016819;28;20049;-78
2022/10/24 02:32:40;;;;;;;10.23;2.10;;;13.70;99.90;;;;;;5029518;28;20389;-78
2022/10/24 02:35:07;;;;;;;7.78;2.65;;;13.60;99.90;;;;;;5036898;28;20026;-78
2022/10/24 02:37:38;;;;;;;6.93;2.13;;;13.60;99.90;;;;;;5036391;28;20021;-76
2022/10/24 02:40:07;;;;;;;10.15;2.35;;;13.60;99.90;;;;;;5035994;28;20465;-79
2022/10/24 02:42:34;;;;;;;7.10;2.08;;;13.60;99.90;;;;;;5036144;28;20021;-79
2022/10/24 02:45:01;;;;;;;6.00;1.75;;;13.60;99.90;;;;;;5035601;28;20428;-83
2022/10/24 02:47:28;;;;;;;4.65;1.88;;;13.70;99.90;;;;;;5032396;28;20033;-84
2022/10/24 02:49:54;;;;;;;9.43;2.00;;;13.70;99.90;;;;;;5035804;28;20037;-81
2022/10/24 02:52:20;;;;;;;5.63;2.33;;;13.60;99.90;;;;;;5036014;28;20029;-82
2022/10/24 02:54:46;;;;;;;9.40;2.78;;;13.60;99.90;;;;;;5036135;28;20434;-81
2022/10/24 02:57:13;;;;;;;8.80;2.40;;;13.60;99.90;;;;;;5036005;28;20071;-81
2022/10/24 02:59:39;;;;;;;9.13;2.00;;;13.60;99.90;;;;;;5035837;28;20018;-81
2022/10/24 03:02:05;;;;;;;10.05;2.20;;;13.60;99.90;;;;;;5036141;28;20022;-81
2022/10/24 03:04:30;;;;;;;9.52;2.58;;;13.60;99.90;;;;;;5036001;28;20107;-81
2022/10/24 03:06:56;;;;;;;8.77;2.22;;;13.60;99.90;;;;;;5036023;28;20099;-81
2022/10/24 03:09:21;;;;;;;7.45;1.95;;;13.60;99.90;;;;;;5036001;28;20029;-81
2022/10/24 03:11:47;;;;;;;7.50;1.95;;;13.60;99.90;;;;;;5035782;28;20118;-81
2022/10/24 03:14:13;;;;;;;8.23;2.15;;;13.60;99.90;;;;;;5035872;28;20030;-81
2022/10/24 03:16:38;;;;;;;7.75;2.13;;;13.60;99.90;;;;;;5035643;28;20049;-81
2022/10/24 03:19:04;;;;;;;7.25;2.30;;;13.60;99.90;;;;;;5035407;28;20022;-81
2022/10/24 03:21:29;;;;;;;10.20;2.10;;;13.60;99.90;;;;;;5036500;28;20353;-81
2022/10/24 03:23:55;;;;;;;10.50;1.98;;;13.60;99.90;;;;;;5035796;28;20470;-81
2022/10/24 03:26:20;;;;;;;11.52;2.25;;;13.60;99.90;;;;;;5035380;28;20418;-81
2022/10/24 03:28:46;;;;;;;9.05;2.58;;;13.70;99.90;;;;;;5035636;28;20053;-81
2022/10/24 03:31:12;;;;;;;7.72;2.50;;;13.60;99.90;;;;;;5035330;28;20033;-81
2022/10/24 03:33:37;;;;;;;7.47;2.00;;;13.60;99.90;;;;;;5035030;28;20102;-81
2022/10/24 03:36:04;;;;;;;7.38;2.10;;;13.60;99.90;;;;;;5034913;28;20035;-81
2022/10/24 03:38:29;;;;;;;7.13;1.98;;;13.70;99.90;;;;;;5035120;28;20467;-81
2022/10/24 03:40:55;;;;;;;8.35;2.40;;;13.60;99.90;;;;;;5035084;28;20046;-80
2022/10/24 03:43:21;;;;;;;17.73;2.67;;;13.70;99.90;;;;;;5033670;28;20034;-81
2022/10/24 03:45:46;;;;;;;5.45;1.80;;;13.60;99.90;;;;;;5035190;28;20099;-81
2022/10/24 03:48:12;;;;;;;9.98;2.05;;;13.60;99.90;;;;;;5034765;28;20494;-81
2022/10/24 03:50:38;;;;;;;10.63;2.20;;;13.70;99.90;;;;;;5034900;28;20045;-81
2022/10/24 03:53:04;;;;;;;8.23;1.90;;;13.70;99.90;;;;;;5035342;28;20029;-81
2022/10/24 03:55:30;;;;;;;8.05;2.28;;;13.70;99.90;;;;;;5035309;28;20131;-81
2022/10/24 03:57:56;;;;;;;8.32;2.20;;;13.70;99.90;;;;;;5034871;28;20057;-81
2022/10/24 04:00:22;;;;;;;8.15;2.08;;;13.80;99.90;;;;;;5034531;28;20057;-81
2022/10/24 04:02:50;;;;;;;10.07;2.20;;;13.80;99.90;;;;;;5034930;28;20413;-81
2022/10/24 04:05:16;;;;;;;6.18;2.03;;;13.80;99.90;;;;;;5034829;28;20042;-81
2022/10/24 04:07:41;;;;;;;7.78;2.10;;;13.90;99.90;;;;;;5034799;28;20044;-81
2022/10/24 04:10:07;;;;;;;9.80;2.38;;;13.90;99.90;;;;;;5034685;28;20036;-81
2022/10/24 04:12:33;;;;;;;7.88;2.60;;;13.90;99.90;;;;;;5034678;28;20485;-81
2022/10/24 04:14:59;;;;;;;8.63;2.00;;;13.90;99.90;;;;;;5034300;28;20026;-81
2022/10/24 04:17:28;;;;;;;9.63;2.25;;;13.90;99.90;;;;;;5034857;28;20021;-81
2022/10/24 04:19:53;;;;;;;8.32;2.70;;;13.90;99.90;;;;;;5033413;28;20083;-91
2022/10/24 04:22:19;;;;;;;9.18;2.90;;;13.90;99.90;;;;;;5030912;28;20029;-85
2022/10/24 04:24:44;;;;;;;5.65;2.20;;;13.90;99.90;;;;;;5031262;28;21756;-85
2022/10/24 04:27:10;;;;;;;10.43;2.35;;;13.90;99.90;;;;;;5031276;28;20091;-85
2022/10/24 04:29:36;;;;;;;8.00;2.10;;;13.90;99.90;;;;;;5031162;28;20114;-85
2022/10/24 04:32:01;;;;;;;8.60;2.90;;;13.90;99.90;;;;;;5025023;28;20549;-83
2022/10/24 04:34:27;;;;;;;11.63;2.80;;;13.80;99.90;;;;;;5031022;28;20030;-83
2022/10/24 04:36:52;;;;;;;8.23;2.50;;;13.80;99.90;;;;;;5030847;28;20030;-83
2022/10/24 04:39:18;;;;;;;9.07;2.30;;;13.80;99.90;;;;;;5030680;28;20018;-83
2022/10/24 04:41:44;;;;;;;8.88;2.47;;;13.80;99.90;;;;;;5030859;28;20552;-83
2022/10/24 04:44:10;;;;;;;13.98;4.50;;;13.80;99.90;;;;;;5030897;28;20416;-83
2022/10/24 04:46:36;;;;;;;13.13;3.85;;;13.80;99.90;;;;;;5030768;28;20021;-83
2022/10/24 04:49:02;;;;;;;7.53;2.67;;;13.80;99.90;;;;;;5029930;28;20022;-83
2022/10/24 04:51:27;;;;;;;9.23;2.75;;;13.80;99.90;;;;;;5031882;28;20022;-87
2022/10/24 04:53:53;;;;;;;12.77;3.35;;;13.80;99.90;;;;;;5032117;28;20033;-79
2022/10/24 04:56:19;;;;;;;11.57;4.10;;;13.80;99.90;;;;;;5032531;28;20025;-79
2022/10/24 04:58:44;;;;;;;10.48;3.40;;;13.80;99.90;;;;;;5033747;28;20031;-79
2022/10/24 05:01:10;;;;;;;12.68;2.67;;;13.80;99.90;;;;;;5033424;28;20068;-79
2022/10/24 05:03:36;;;;;;;10.63;3.08;;;13.80;99.90;;;;;;5033802;28;20065;-79
2022/10/24 05:06:01;;;;;;;10.75;2.78;;;13.80;99.90;;;;;;5033480;28;20038;-82
2022/10/24 05:08:27;;;;;;;10.57;2.67;;;13.80;99.90;;;;;;5033278;28;20052;-81
2022/10/24 05:10:53;;;;;;;10.25;3.83;;;13.80;99.90;;;;;;5033575;28;20029;-79
2022/10/24 05:13:18;;;;;;;7.22;2.38;;;13.80;99.90;;;;;;5033246;28;20467;-79
2022/10/24 05:15:44;;;;;;;8.80;3.10;;;13.80;99.90;;;;;;5033176;28;20056;-82
2022/10/24 05:18:10;;;;;;;17.33;4.15;;;13.90;99.90;;;;;;5018208;28;20081;-81
2022/10/24 05:20:35;;;;;;;13.82;3.10;;;13.90;99.90;;;;;;5014015;28;20040;-81
2022/10/24 05:23:01;;;;;;;11.63;3.30;;;13.90;99.90;;;;;;5013952;28;20022;-81
2022/10/24 05:25:26;;;;;;;11.38;2.90;;;13.90;99.90;;;;;;5031617;28;20036;-81
2022/10/24 05:27:52;;;;;;;13.60;3.72;;;13.90;99.90;;;;;;5033018;28;20471;-81
2022/10/24 05:30:18;;;;;;;12.70;3.15;;;13.80;99.90;;;;;;5032842;28;20078;-81
2022/10/24 05:32:44;;;;;;;13.30;4.00;;;13.90;99.90;;;;;;5032632;28;20037;-81
2022/10/24 05:35:10;;;;;;;13.20;3.70;;;13.90;99.90;;;;;;5033077;28;20033;-81
2022/10/24 05:37:37;;;;;;;13.30;2.92;;;13.90;99.90;;;;;;5033157;28;20517;-81
2022/10/24 05:40:05;;;;;;;10.82;3.00;;;13.90;99.90;;;;;;5033293;28;20509;-82
2022/10/24 05:42:30;;;;;;;11.23;3.53;;;13.90;99.90;;;;;;5023139;28;20030;-82
2022/10/24 05:44:58;;;;;;;10.88;3.42;;;13.80;99.90;;;;;;5013328;28;20036;-81
2022/10/24 05:47:24;;;;;;;11.95;3.05;;;13.90;99.90;;;;;;5013343;28;20094;-81
2022/10/24 05:49:49;;;;;;;10.77;3.40;;;13.90;99.90;;;;;;5027260;28;20022;-81
2022/10/24 05:52:15;;;;;;;16.02;3.53;;;14.00;99.90;;;;;;5013383;28;20026;-81
2022/10/24 05:54:41;;;;;;;11.90;3.25;;;14.00;99.90;;;;;;5013134;28;20018;-81
2022/10/24 05:57:06;;;;;;;10.50;2.92;;;14.00;99.90;;;;;;5013461;28;20093;-82
2022/10/24 05:59:32;;;;;;;10.18;3.00;;;14.00;99.90;;;;;;5014805;28;20466;-81
2022/10/24 06:01:57;;;;;;;8.60;2.75;;;14.00;99.90;;;;;;5017226;28;20100;-81
2022/10/24 06:04:23;;;;;;;11.05;3.30;;;13.90;99.90;;;;;;5018275;28;20022;-81
2022/10/24 06:06:48;;;;;;;13.70;3.40;;;14.00;99.90;;;;;;5036997;28;20021;-81
2022/10/24 06:09:14;;;;;;;13.27;3.45;;;14.00;99.90;;;;;;5036685;28;20025;-81
2022/10/24 06:11:41;;;;;;;12.98;3.53;;;14.00;99.90;;;;;;5037031;28;20025;-81
2022/10/24 06:14:06;;;;;;;9.05;2.78;;;13.90;99.90;;;;;;5036724;28;20029;-81
2022/10/24 06:16:33;;;;;;;9.10;3.00;;;14.00;99.90;;;;;;5036659;28;20021;-79
2022/10/24 06:18:58;;;;;;;10.05;3.20;;;14.00;99.90;;;;;;5036984;28;20144;-79
2022/10/24 06:21:24;;;;;;;10.82;3.05;;;14.00;99.90;;;;;;5036815;28;20100;-80
2022/10/24 06:23:54;;;;;;;9.73;2.28;;;14.10;99.90;;;;;;5051730;28;20033;-80
2022/10/24 06:26:20;;;;;;;11.65;3.20;;;14.10;99.90;;;;;;5056901;28;20036;-80
2022/10/24 06:28:45;;;;;;;10.93;2.75;;;14.10;99.90;;;;;;5055803;28;20397;-80
2022/10/24 06:31:12;;;;;;;12.75;2.75;;;14.10;99.90;;;;;;5056266;28;20184;-80
2022/10/24 06:33:38;;;;;;;14.10;3.03;;;14.10;99.90;;;;;;5038841;28;20025;-80
2022/10/24 06:36:05;;;;;;;8.57;2.97;;;14.10;99.90;;;;;;5036254;28;20056;-80
2022/10/24 06:38:32;;;;;;;9.13;2.75;;;14.10;99.90;;;;;;5048065;28;20075;-80
2022/10/24 06:40:58;;;;;;;7.65;2.95;;;14.10;99.90;;;;;;5049357;28;20108;-80
2022/10/24 06:43:24;;;;;;;9.32;2.75;;;14.10;99.90;;;;;;5050021;28;20446;-81
2022/10/24 06:45:49;;;;;;;8.98;2.70;;;14.10;99.90;;;;;;5036319;28;20037;-79
2022/10/24 06:48:15;;;;;;;10.45;2.95;;;14.10;99.90;;;;;;5036540;28;20027;-80
2022/10/24 06:50:41;;;;;;;9.13;2.80;;;14.10;99.90;;;;;;5036185;28;20465;-81
2022/10/24 06:53:08;;;;;;;11.32;2.83;;;14.10;99.90;;;;;;5036280;28;20039;-80
2022/10/24 06:55:37;;;;;;;8.30;2.95;;;14.10;99.90;;;;;;5034784;28;20355;-81
2022/10/24 06:58:05;;;;;;;8.95;2.50;;;14.10;99.90;;;;;;5036298;28;20382;-81
2022/10/24 07:00:34;;;;;;;8.23;2.45;;;14.10;99.90;;;;;;5036165;28;20029;-80
2022/10/24 07:03:00;;;;;;;9.70;2.70;;;14.10;99.90;;;;;;5036254;28;20022;-80
2022/10/24 07:05:25;;;;;;;10.25;2.80;;;14.10;99.90;;;;;;5036027;28;20059;-80
2022/10/24 07:07:51;;;;;;;9.80;3.35;;;14.10;99.90;;;;;;5037958;28;20152;-80
2022/10/24 07:10:16;;;;;;;7.70;2.72;;;14.10;99.90;;;;;;5037186;28;20124;-80
2022/10/24 07:12:42;;;;;;;7.03;2.42;;;14.10;99.90;;;;;;5022430;28;20025;-81
2022/10/24 07:15:08;;;;;;;12.50;3.03;;;14.10;99.90;;;;;;5017321;28;20025;-80
2022/10/24 07:17:41;;;;;;;13.80;2.78;;;14.10;99.90;;;;;;5017669;28;20022;-80
2022/10/24 07:20:07;;;;;;;8.88;2.58;;;14.10;99.90;;;;;;5014959;28;20080;-80
2022/10/24 07:22:34;;;;;;;10.45;2.92;;;14.10;99.90;;;;;;5016277;28;20049;-80
2022/10/24 07:24:59;;;;;;;9.95;2.67;;;14.10;99.90;;;;;;5031963;28;20049;-80
2022/10/24 07:27:25;;;;;;;7.45;2.58;;;14.20;99.90;;;;;;5035801;28;20101;-80
2022/10/24 07:29:52;;;;;;;8.23;2.45;;;14.20;99.90;;;;;;5035784;28;20083;-81
2022/10/24 07:32:18;;;;;;;11.20;2.42;;;14.20;99.90;;;;;;5035358;28;20104;-80
2022/10/24 07:34:46;;;;;;;9.43;2.95;;;14.20;99.90;;;;;;5036008;28;20071;-81
2022/10/24 07:37:11;;;;;;;14.18;2.70;;;14.20;99.90;;;;;;5036336;28;20358;-81
2022/10/24 07:39:38;;;;;;;10.13;2.60;;;14.20;99.90;;;;;;5035390;28;20049;-81
2022/10/24 07:42:03;;;;;;;9.13;2.58;;;14.20;99.90;;;;;;5035376;28;20017;-80
2022/10/24 07:44:29;;;;;;;7.53;2.53;;;14.20;99.90;;;;;;5035779;28;20102;-81
2022/10/24 07:46:57;;;;;;;11.13;2.85;;;14.20;99.90;;;;;;5035536;28;20485;-80
2022/10/24 07:49:23;;;;;;;9.88;2.70;;;14.20;99.90;;;;;;5035285;28;20021;-80
2022/10/24 07:51:48;;;;;;;8.40;2.30;;;14.20;99.90;;;;;;5035040;28;20470;-80
2022/10/24 07:54:14;;;;;;;8.30;2.67;;;14.20;99.90;;;;;;5035464;28;20029;-80
2022/10/24 07:56:40;;;;;;;9.00;2.92;;;14.20;99.90;;;;;;5035386;28;20022;-80
2022/10/24 07:59:05;;;;;;;10.25;2.97;;;14.20;99.90;;;;;;5035286;28;20101;-80
2022/10/24 08:01:31;;;;;;;8.30;2.65;;;14.20;99.90;;;;;;5034030;28;20018;-80
2022/10/24 08:03:57;;;;;;;8.80;2.92;;;14.20;99.90;;;;;;5034881;28;20030;-80
2022/10/24 08:06:28;;;;;;;8.40;2.67;;;14.20;99.90;;;;;;5035400;28;20500;-81
2022/10/24 08:08:54;;;;;;;9.40;2.38;;;14.20;99.90;;;;;;5034914;28;20079;-80
2022/10/24 08:11:25;;;;;;;9.10;2.90;;;14.20;99.90;;;;;;5019398;28;20056;-83
2022/10/24 08:13:52;;;;;;;11.05;3.25;;;14.20;99.90;;;;;;5015506;28;20030;-83
2022/10/24 08:16:21;;;;;;;9.93;2.55;;;14.20;99.90;;;;;;5015459;28;20021;-83
2022/10/24 08:18:48;;;;;;;12.55;2.60;;;14.20;99.90;;;;;;5035184;28;20410;-83
2022/10/24 08:21:15;;;;;;;8.00;2.42;;;14.20;99.90;;;;;;5035017;28;20100;-83
2022/10/24 08:23:44;;;;;;;9.02;3.25;;;14.20;99.90;;;;;;5034037;28;20033;-83
2022/10/24 08:26:14;;;;;;;11.80;2.85;;;14.30;99.90;;;;;;5034786;28;20167;-83
2022/10/24 08:28:40;;;;;;;7.57;3.00;;;14.30;99.90;;;;;;5035288;28;20025;-83
2022/10/24 08:31:09;;;;;;;8.93;2.67;;;14.40;99.90;;;;;;5034652;28;20041;-83
2022/10/24 08:33:35;;;;;;;8.25;2.83;;;14.40;99.90;;;;;;5034784;28;20075;-83
2022/10/24 08:36:07;;;;;;;9.88;2.58;;;14.40;99.90;;;;;;5034550;28;20451;-83
2022/10/24 08:38:32;;;;;;;12.07;2.78;;;14.50;99.90;;;;;;5034493;28;20021;-83
2022/10/24 08:41:01;;;;;;;7.57;2.55;;;14.60;99.90;;;;;;5033127;28;20037;-87
2022/10/24 08:43:28;;;;;;;7.35;2.40;;;14.60;99.90;;;;;;5033239;28;20025;-84
2022/10/24 08:46:20;;;;;;;7.90;2.47;;;14.70;99.90;;;;;;5033235;28;20144;-83
2022/10/24 08:48:59;;;;;;;13.32;2.42;;;14.70;99.90;;;;;;5034341;28;20018;-83
2022/10/24 08:51:39;;;;;;;9.60;2.33;;;14.70;99.90;;;;;;5034228;28;20140;-83
2022/10/24 08:54:10;;;;;;;10.27;2.42;;;14.70;99.90;;;;;;5034045;28;20032;-84
2022/10/24 08:56:38;;;;;;;10.23;2.00;;;14.70;99.90;;;;;;5034338;28;20021;-83
2022/10/24 08:59:05;;;;;;;9.07;2.70;;;14.80;99.90;;;;;;5032768;28;20021;-84
2022/10/24 09:01:40;;;;;;;10.88;2.83;;;14.70;99.90;;;;;;5033224;28;20108;-83
2022/10/24 09:04:09;;;;;;;10.98;3.15;;;14.70;99.90;;;;;;5034102;28;20109;-84
2022/10/24 09:06:36;;;;;;;8.75;3.85;;;14.70;99.90;;;;;;5032720;28;20056;-86
2022/10/24 09:09:10;;;;;;;10.23;4.05;;;14.70;99.90;;;;;;5033428;28;20029;-86
2022/10/24 09:11:58;;;;;;;15.57;4.15;;;14.70;99.90;;;;;;5034441;28;20026;-86
2022/10/24 09:14:27;;;;;;;9.57;2.70;;;14.70;99.90;;;;;;5033288;28;20039;-86
2022/10/24 09:17:21;;;;;;;8.60;2.67;;;14.70;99.90;;;;;;5032920;28;20478;-86
2022/10/24 09:20:06;;;;;;;12.00;2.65;;;14.60;99.90;;;;;;5032750;28;20052;-86
2022/10/24 09:22:34;;;;;;;8.02;2.33;;;14.70;99.90;;;;;;5020859;28;20056;-86
2022/10/24 09:25:06;;;;;;;8.18;2.28;;;14.70;99.90;;;;;;5032768;28;20079;-86
2022/10/24 09:27:36;;;;;;;8.63;2.50;;;14.70;99.90;;;;;;5032702;28;20021;-87
2022/10/24 09:30:03;;;;;;;9.00;2.25;;;14.70;99.90;;;;;;5033416;28;20029;-85
2022/10/24 09:32:32;;;;;;;13.73;2.63;;;14.70;99.90;;;;;;5032619;28;20099;-85
2022/10/24 09:35:08;;;;;;;13.65;3.13;;;14.70;99.90;;;;;;5032964;28;20022;-85
2022/10/24 09:38:00;;;;;;;12.00;2.63;;;14.70;99.90;;;;;;5032461;28;20120;-86
2022/10/24 09:40:39;;;;;;;16.92;2.97;;;14.70;99.90;;;;;;5032869;28;20050;-87
2022/10/24 09:43:40;;;;;;;14.88;2.75;;;14.70;99.90;;;;;;5029263;28;20036;-86
2022/10/24 09:46:22;;;;;;;9.65;2.70;;;14.70;99.90;;;;;;5025489;28;20516;-86
2022/10/24 09:49:15;;;;;;;9.43;2.50;;;14.70;99.90;;;;;;5028699;28;20033;-86
2022/10/24 09:53:02;;;;;;;9.00;2.67;;;14.70;99.90;;;;;;5025464;28;20501;-86
2022/10/24 09:55:30;;;;;;;7.65;2.45;;;14.70;99.90;;;;;;5006301;28;20032;-87
2022/10/24 09:58:04;;;;;;;12.68;3.30;;;14.60;99.90;;;;;;5010660;28;20026;-86
2022/10/24 10:00:39;;;;;;;9.88;2.20;;;14.60;99.90;;;;;;5007407;28;20037;-86
2022/10/24 10:03:21;;;;;;;7.60;2.40;;;14.50;99.90;;;;;;4994687;28;20029;-85
2022/10/24 10:05:53;;;;;;;7.20;2.50;;;14.50;99.90;;;;;;5015668;28;20493;-86
2022/10/24 10:08:50;;;;;;;7.45;2.65;;;14.40;99.90;;;;;;5032781;28;20026;-87
2022/10/24 10:11:39;;;;;;;9.90;2.97;;;14.40;99.90;;;;;;5032165;28;20045;-87
2022/10/24 10:14:21;;;;;;;9.70;3.10;;;14.40;99.90;;;;;;5031782;28;20112;-86
2022/10/24 10:16:58;;;;;;;11.60;3.17;;;14.30;99.90;;;;;;5032949;28;20029;-87
2022/10/24 10:19:24;;;;;;;8.23;2.42;;;14.30;99.90;;;;;;5033101;28;20021;-87
2022/10/24 10:22:00;;;;;;;9.93;2.40;;;14.40;99.90;;;;;;5033266;28;20021;-86
2022/10/24 10:24:40;;;;;;;7.53;2.30;;;14.30;99.90;;;;;;5031991;28;20030;-86
2022/10/24 10:27:38;;;;;;;12.45;2.63;;;14.30;99.90;;;;;;5033054;28;20018;-86
2022/10/24 10:30:14;;;;;;;11.85;2.92;;;14.40;99.90;;;;;;5032760;28;20022;-86
2022/10/24 10:33:20;;;;;;;10.65;3.83;;;14.40;99.90;;;;;;5032998;28;20041;-86
2022/10/24 10:35:46;;;;;;;;;;;14.40;99.90;;;;;;5031996;28;20029;-81
2022/10/24 10:38:30;;;;;;;8.23;2.40;;;14.40;99.90;;;;;;5030834;28;19963;-81
2022/10/24 10:41:13;;;;;;;7.45;2.40;;;14.40;99.90;;;;;;5031275;28;20041;-86
2022/10/24 10:43:50;;;;;;;8.88;2.45;;;14.40;99.90;;;;;;5032599;28;20025;-87
2022/10/24 10:46:38;;;;;;;9.45;2.63;;;14.40;99.90;;;;;;5032606;28;20026;-88
2022/10/24 10:49:22;;;;;;;11.98;2.88;;;14.40;99.90;;;;;;5016437;28;20026;-87
2022/10/24 10:52:05;;;;;;;7.65;2.65;;;14.40;99.90;;;;;;5021831;28;20413;-87
2022/10/24 10:54:52;;;;;;;16.25;2.75;;;14.40;99.90;;;;;;5035949;28;20025;-87
2022/10/24 10:57:42;;;;;;;8.77;3.25;;;14.40;99.90;;;;;;5035811;28;20075;-87
2022/10/24 11:00:12;;;;;;;8.63;3.10;;;14.30;99.90;;;;;;5016937;28;20041;-87
2022/10/24 11:02:49;;;;;;;5.93;2.70;;;14.30;99.90;;;;;;5016376;28;20133;-87
2022/10/24 11:05:27;;;;;;;9.65;2.35;;;14.30;99.90;;;;;;5034364;28;20045;-88
2022/10/24 11:08:28;;;;;;;6.40;2.70;;;14.20;99.90;;;;;;5027224;28;20033;-88
2022/10/24 11:11:27;;;;;;;12.70;3.15;;;14.20;99.90;;;;;;5030651;28;20056;-87
2022/10/24 11:13:59;;;;;;;7.93;2.63;;;14.20;99.90;;;;;;5034696;28;20045;-88
2022/10/24 11:16:27;;;;;;;9.13;2.83;;;14.20;99.90;;;;;;5018172;28;20096;-88
2022/10/24 11:18:59;;;;;;;12.00;2.83;;;14.10;99.90;;;;;;5031596;28;20076;-85
2022/10/24 11:21:29;;;;;;;10.82;2.83;;;14.10;99.90;;;;;;5035678;28;20172;-86
2022/10/24 11:24:01;;;;;;;10.02;3.50;;;14.10;99.90;;;;;;5026101;28;20029;-85
2022/10/24 11:26:52;;;;;;;8.45;2.67;;;14.10;99.90;;;;;;5015277;28;20054;-86
2022/10/24 11:29:41;;;;;;;9.43;2.60;;;14.10;99.90;;;;;;5015133;28;20160;-85
2022/10/24 11:32:19;;;;;;;8.00;2.85;;;14.00;99.90;;;;;;5025037;28;20335;-85
2022/10/24 11:34:53;;;;;;;5.20;2.00;;;14.00;99.90;;;;;;5034753;28;20030;-85
2022/10/24 11:37:41;;;;;;;15.02;2.72;;;14.00;99.90;;;;;;5034833;28;20049;-85
2022/10/24 11:40:27;;;;;;;9.93;2.30;;;14.00;99.90;;;;;;5034652;28;20041;-85
2022/10/24 11:43:20;;;;;;;7.72;2.60;;;14.00;99.90;;;;;;5030144;28;20044;-85
2022/10/24 11:46:00;;;;;;;10.85;2.85;;;14.00;99.90;;;;;;5020398;28;20037;-85
2022/10/24 11:48:56;;;;;;;8.10;2.92;;;14.00;99.90;;;;;;5035019;28;20351;-85
2022/10/24 11:51:30;;;;;;;13.77;2.60;;;14.00;99.90;;;;;;5015978;28;20014;-85
2022/10/24 11:54:02;;;;;;;5.68;2.70;;;13.90;99.90;;;;;;5030878;28;20030;-85
2022/10/24 11:56:47;;;;;;;7.05;2.60;;;13.90;99.90;;;;;;5034613;28;20108;-85
2022/10/24 11:59:22;;;;;;;10.23;2.53;;;13.90;99.90;;;;;;5033688;28;20383;-85
2022/10/24 12:01:56;;;;;;;8.15;2.60;;;13.90;99.90;;;;;;5034741;28;20025;-85
2022/10/24 12:04:33;;;;;;;7.20;2.13;;;13.90;99.90;;;;;;5017443;28;20470;-85
2022/10/24 12:07:14;;;;;;;10.20;2.22;;;13.90;99.90;;;;;;5033787;28;20466;-85
2022/10/24 12:09:42;;;;;;;8.65;3.00;;;13.80;99.90;;;;;;5036095;28;20528;-85
2022/10/24 12:12:25;;;;;;;15.10;2.25;;;13.80;99.90;;;;;;5036378;28;20022;-85
2022/10/24 12:15:11;;;;;;;10.40;1.90;;;13.80;99.90;;;;;;5030226;28;20022;-85
2022/10/24 12:18:06;;;;;;;8.75;2.67;;;13.80;99.90;;;;;;5016621;28;20026;-85
2022/10/24 12:20:33;;;;;;;7.63;1.80;;;13.80;99.90;;;;;;5034653;28;20409;-85
2022/10/24 12:23:01;;;;;;;6.50;2.45;;;13.70;99.90;;;;;;5034702;28;20121;-85
2022/10/24 12:25:37;;;;;;;8.65;2.60;;;13.70;99.90;;;;;;5035014;28;20036;-85
2022/10/24 12:28:24;;;;;;;5.57;1.83;;;13.80;99.90;;;;;;5034804;28;20083;-85
2022/10/24 12:31:09;;;;;;;4.60;1.95;;;13.80;99.90;;;;;;5023202;28;20108;-85
2022/10/24 12:33:35;;;;;;;4.97;2.08;;;13.80;99.90;;;;;;5014486;28;20068;-84
2022/10/24 12:36:00;;;;;;;4.55;1.88;;;13.80;99.90;;;;;;5015102;28;20030;-85
2022/10/24 12:38:26;;;;;;;10.25;1.92;;;13.80;99.90;;;;;;5014745;28;20080;-85
2022/10/24 12:41:22;;;;;;;7.10;2.08;;;13.80;99.90;;;;;;5014211;28;20050;-85
2022/10/24 12:43:48;;;;;;;6.07;2.13;;;13.90;99.90;;;;;;5027106;28;20025;-84
2022/10/24 12:46:13;;;;;;;5.32;1.90;;;13.90;99.90;;;;;;5033411;28;20112;-84
2022/10/24 12:48:41;;;;;;;9.00;2.60;;;13.90;99.90;;;;;;5033589;28;20030;-85
2022/10/24 12:51:38;;;;;;;5.05;2.13;;;13.90;99.90;;;;;;5033851;28;20380;-85
2022/10/24 12:54:10;;;;;;;4.38;2.40;;;13.90;99.90;;;;;;5033811;28;20128;-85
2022/10/24 12:56:59;;;;;;;5.78;2.58;;;13.90;99.90;;;;;;5013577;28;20034;-84
2022/10/24 12:59:32;;;;;;;6.32;1.98;;;13.90;99.90;;;;;;5028860;28;20382;-85
2022/10/24 13:02:12;;;;;;;7.43;2.75;;;13.90;99.90;;;;;;5033405;28;20033;-84
2022/10/24 13:04:41;;;;;;;7.50;2.40;;;13.90;99.90;;;;;;5017270;28;20028;-84